Curtis Field
KBBD : rendu visible

Aérodrome :











RETROUVEZ-NOUS SUR...

 
LOGIN :

S'inscrire | Disclaimer

   EN    FR    IT 

 









Légende :    VFR   VFR Marginal   IFR   IFR Intensif   IFR Très Intensif
Visi : 
Plafond : 
>= 8 km
>= 3000ft
5 à 8 km
1000 à 3000 ft
1500m à 5 km
500 à 1000 ft
800 à 1500m
200 à 500 ft
< 800m
< 200 ft
Symboles :   Orages  Brouillard  Fortes neiges  Fortes précipitations  Vent > 20 kt






- Altitude de l'aérodrome : 1827 ft


KBBD - Curtis Field

DERNIER METAR :
  • 100915Z AUTO 01012KT 6SM -RA OVC005 02/01 A3011 RMK AO2

METARs EXPIRÉS :
  • 100855Z AUTO 36015KT 5SM RA OVC006 02/02 A3013 RMK AO2 P0008
  • 100835Z AUTO 36010KT 4SM RA OVC005 03/02 A3013 RMK AO2
  • 100815Z AUTO 36014KT 5SM RA OVC005 03/02 A3012 RMK AO2
  • 100755Z AUTO 36014KT 4SM RA OVC005 03/02 A3010 RMK AO2 P0002
  • 100735Z AUTO 35012KT 10SM OVC005 03/02 A3010 RMK AO2
  • 100715Z AUTO 01011KT 10SM -RA OVC005 04/03 A3007 RMK AO2
  • 100655Z AUTO 01015G20KT 10SM -RA OVC007 04/03 A3007 RMK AO2 P0001
  • 100635Z AUTO 36014KT 7SM -RA BKN007 OVC065 04/03 A3007 RMK AO2
  • 100615Z AUTO 01015G23KT 7SM -RA OVC065 05/03 A3006 RMK AO2

TAF KBBD
Valide du 10 à 07h jusqu'au 11 à 06h UTC


100712Z 1007/1106 36012G18KT P6SM -RA OVC012
TEMPO 1007/1011 6SM -RA BR OVC007
FM101100 35010KT 5SM RA BR OVC007
FM101500 34010KT P6SM -RA OVC010
FM102100 36007KT P6SM SCT025 BKN035



MET'MAP, la Météo Aéronautique d'un coup d'oeil ! - Copyright ORBIFLY Décembre 2007 - Disclaimer

ORBIFLY MET'MAP TEAM :

Programmation & Développement : Alexandra Zaïnal
Sur une idée originale de : Baudouin d'Aumeries
Assistance à la programmation : Marc-Olivier Méhu
Soutien technique & logistique : Manuel Goepfert

Contact : metmap@orbifly.com




SOURCES & CREDITS :

   NOAA       Earth
Advisory